createdAt,value
2019-02-14T00:01:52.370Z,1.00
2019-02-14T00:04:21.864Z,1.00
2019-02-14T00:06:50.775Z,1.00
2019-02-14T00:09:19.706Z,1.00
2019-02-14T00:11:48.971Z,1.00
2019-02-14T00:14:18.201Z,1.00
2019-02-14T00:16:47.243Z,1.00
2019-02-14T00:19:16.201Z,1.00
2019-02-14T00:21:45.501Z,1.00
2019-02-14T00:24:14.410Z,1.00
2019-02-14T00:26:43.432Z,1.00
2019-02-14T00:29:12.505Z,0.90
2019-02-14T00:31:41.454Z,0.90
2019-02-14T00:34:10.660Z,0.90
2019-02-14T00:36:39.757Z,0.80
2019-02-14T00:39:08.676Z,0.80
2019-02-14T00:41:38.591Z,0.80
2019-02-14T00:44:07.763Z,0.80
2019-02-14T00:46:37.809Z,0.80
2019-02-14T00:49:07.008Z,0.70
2019-02-14T00:51:36.033Z,0.70
2019-02-14T00:54:05.080Z,0.70
2019-02-14T00:56:34.528Z,0.70
2019-02-14T00:59:03.521Z,0.70
2019-02-14T01:01:32.599Z,0.80
2019-02-14T01:04:01.542Z,0.80
2019-02-14T01:06:30.599Z,0.80
2019-02-14T01:09:00.068Z,0.80
2019-02-14T01:11:29.397Z,0.80
2019-02-14T01:13:59.128Z,0.80
2019-02-14T01:16:28.408Z,0.80
2019-02-14T01:18:57.538Z,0.80
2019-02-14T01:21:27.133Z,0.80
2019-02-14T01:23:56.058Z,0.80
2019-02-14T01:26:29.368Z,0.80
2019-02-14T01:28:58.375Z,0.80
2019-02-14T01:31:27.411Z,0.70
2019-02-14T01:33:56.339Z,0.80
2019-02-14T01:36:25.716Z,0.70
2019-02-14T01:38:54.940Z,0.70
2019-02-14T01:41:24.995Z,0.70
2019-02-14T01:43:54.422Z,0.70
2019-02-14T01:46:23.760Z,0.70
2019-02-14T01:48:53.104Z,0.70
2019-02-14T01:51:22.153Z,0.70
2019-02-14T01:53:51.709Z,0.70
2019-02-14T01:56:27.053Z,0.60
2019-02-14T01:58:56.291Z,0.60
2019-02-14T02:01:25.559Z,0.60
2019-02-14T02:03:54.908Z,0.60
2019-02-14T02:06:23.965Z,0.60
2019-02-14T02:08:52.966Z,0.70
2019-02-14T02:11:22.562Z,0.60
2019-02-14T02:13:51.996Z,0.60
2019-02-14T02:16:21.044Z,0.60
2019-02-14T02:18:50.003Z,0.60
2019-02-14T02:21:49.316Z,0.60
2019-02-14T02:24:18.387Z,0.60
2019-02-14T02:26:47.515Z,0.60
2019-02-14T02:29:16.665Z,0.60
2019-02-14T02:31:45.645Z,0.50
2019-02-14T02:34:14.543Z,0.50
2019-02-14T02:36:44.337Z,0.50
2019-02-14T02:39:16.451Z,0.50
2019-02-14T02:41:46.181Z,0.50
2019-02-14T02:44:15.487Z,0.40
2019-02-14T02:47:05.508Z,0.40
2019-02-14T02:49:34.551Z,0.40
2019-02-14T02:52:03.588Z,0.40
2019-02-14T02:54:32.817Z,0.40
2019-02-14T02:57:01.890Z,0.40
2019-02-14T02:59:30.928Z,0.40
2019-02-14T03:02:03.091Z,0.30
2019-02-14T03:04:32.383Z,0.30
2019-02-14T03:07:01.385Z,0.30
2019-02-14T03:09:30.360Z,0.30
2019-02-14T03:11:59.383Z,0.30
2019-02-14T03:14:28.406Z,0.30
2019-02-14T03:16:57.325Z,0.30
2019-02-14T03:19:26.195Z,0.20
2019-02-14T03:21:55.353Z,0.20
2019-02-14T03:24:24.365Z,0.20
2019-02-14T03:26:54.175Z,0.20
2019-02-14T03:29:23.368Z,0.20
2019-02-14T03:31:53.084Z,0.20
2019-02-14T03:34:22.256Z,0.20
2019-02-14T03:36:51.612Z,0.20
2019-02-14T03:39:21.222Z,0.20
2019-02-14T03:41:50.569Z,0.20
2019-02-14T03:44:19.701Z,0.20
2019-02-14T03:46:48.995Z,0.20
2019-02-14T03:49:42.858Z,0.10
2019-02-14T03:52:12.134Z,0.10
2019-02-14T03:54:41.149Z,0.10
2019-02-14T03:57:10.280Z,0.10
2019-02-14T03:59:39.396Z,0.10
2019-02-14T04:02:09.645Z,0.10
2019-02-14T04:04:39.256Z,0.10
2019-02-14T04:07:08.748Z,0.10
2019-02-14T04:09:38.078Z,0.10
2019-02-14T04:12:47.312Z,0.10
2019-02-14T04:15:16.782Z,0.10
2019-02-14T04:17:46.483Z,0.00
2019-02-14T04:20:15.496Z,0.00
2019-02-14T04:22:45.491Z,0.00
2019-02-14T04:25:22.815Z,0.00
2019-02-14T04:27:51.844Z,0.00
2019-02-14T04:30:20.768Z,0.00
2019-02-14T04:32:49.857Z,0.00
2019-02-14T04:35:18.900Z,0.00
2019-02-14T04:37:47.934Z,0.00
2019-02-14T04:40:16.951Z,-0.10
2019-02-14T04:42:46.446Z,-0.10
2019-02-14T04:45:15.930Z,-0.10
2019-02-14T04:47:44.972Z,-0.10
2019-02-14T04:50:14.040Z,-0.10
2019-02-14T04:52:43.536Z,-0.10
2019-02-14T04:55:13.126Z,-0.10
2019-02-14T04:57:42.356Z,-0.10
2019-02-14T05:00:12.114Z,-0.10
2019-02-14T05:02:41.548Z,-0.10
2019-02-14T05:05:10.676Z,0.00
2019-02-14T05:07:40.064Z,0.00
2019-02-14T05:10:09.246Z,0.00
2019-02-14T05:12:38.602Z,0.00
2019-02-14T05:15:07.710Z,-0.10
2019-02-14T05:17:51.236Z,-0.10
2019-02-14T05:20:20.518Z,-0.10
2019-02-14T05:22:49.848Z,-0.10
2019-02-14T05:25:40.785Z,-0.20
2019-02-14T05:28:10.429Z,-0.20
2019-02-14T05:34:20.753Z,-0.20
2019-02-14T05:37:00.014Z,-0.20
2019-02-14T05:39:33.481Z,-0.30
2019-02-14T05:45:28.685Z,-0.30
2019-02-14T05:59:26.638Z,-0.40
2019-02-14T06:01:56.963Z,-0.30
2019-02-14T06:04:26.747Z,-0.40
2019-02-14T06:07:01.153Z,-0.40
2019-02-14T06:09:27.102Z,-0.40
2019-02-14T06:12:06.501Z,-0.40
2019-02-14T06:14:41.241Z,-0.40
2019-02-14T06:17:10.996Z,-0.40
2019-02-14T06:19:43.485Z,-0.40
2019-02-14T06:22:15.832Z,-0.40
2019-02-14T06:24:57.978Z,-0.40
2019-02-14T06:27:27.584Z,-0.40
2019-02-14T06:29:57.007Z,-0.40
2019-02-14T06:32:26.758Z,-0.40
2019-02-14T06:34:59.489Z,-0.40
2019-02-14T06:37:29.774Z,-0.40
2019-02-14T06:39:59.383Z,-0.40
2019-02-14T06:42:28.838Z,-0.40
2019-02-14T06:44:58.267Z,-0.40
2019-02-14T06:47:27.684Z,-0.40
2019-02-14T06:49:57.095Z,-0.40
2019-02-14T06:52:26.651Z,-0.40
2019-02-14T06:54:55.963Z,-0.40
2019-02-14T06:57:26.403Z,-0.40
2019-02-14T07:00:01.737Z,-0.40
2019-02-14T07:05:32.207Z,-0.40
2019-02-14T07:10:37.256Z,-0.40
2019-02-14T07:13:12.041Z,-0.40
2019-02-14T07:15:41.923Z,-0.40
2019-02-14T07:18:13.858Z,-0.40
2019-02-14T07:28:12.120Z,-0.30
2019-02-14T07:30:46.370Z,-0.20
2019-02-14T07:37:26.888Z,-0.10
2019-02-14T07:39:51.399Z,0.00
2019-02-14T07:42:21.441Z,0.10
2019-02-14T07:44:50.974Z,0.10
2019-02-14T07:47:20.271Z,0.20
2019-02-14T07:49:50.273Z,0.20
2019-02-14T07:53:13.181Z,0.30
2019-02-14T07:55:42.447Z,0.30
2019-02-14T07:58:12.083Z,0.40
2019-02-14T08:00:41.531Z,0.50
2019-02-14T08:03:10.859Z,0.60
2019-02-14T08:09:21.949Z,0.70
2019-02-14T08:11:51.947Z,0.80
2019-02-14T08:14:25.811Z,0.90
2019-02-14T08:16:55.310Z,1.00
2019-02-14T08:23:10.629Z,1.20
2019-02-14T08:28:30.923Z,1.40
2019-02-14T08:41:43.061Z,1.70
2019-02-14T08:47:55.343Z,1.90
2019-02-14T08:50:41.433Z,2.00
2019-02-14T08:53:11.303Z,2.10
2019-02-14T08:59:27.532Z,2.30
2019-02-14T09:01:58.906Z,2.40
2019-02-14T09:31:35.615Z,3.30
2019-02-14T09:34:08.694Z,3.40
2019-02-14T09:39:41.041Z,3.60
2019-02-14T09:42:13.113Z,3.70
2019-02-14T09:47:40.372Z,3.90
2019-02-14T09:50:11.174Z,4.10
2019-02-14T09:52:40.949Z,4.20
2019-02-14T09:55:10.828Z,4.30
2019-02-14T09:57:40.517Z,4.40
2019-02-14T10:00:12.735Z,4.50
2019-02-14T10:02:42.808Z,4.70
2019-02-14T10:07:58.442Z,4.90
2019-02-14T10:10:31.542Z,5.00
2019-02-14T10:13:00.665Z,5.10
2019-02-14T10:15:30.079Z,5.20
2019-02-14T10:17:59.790Z,5.30
2019-02-14T10:20:29.026Z,5.30
2019-02-14T10:22:59.575Z,5.50
2019-02-14T10:25:30.592Z,5.60
2019-02-14T10:34:22.735Z,5.90
2019-02-14T10:36:54.071Z,6.10
2019-02-14T10:51:19.164Z,6.70
2019-02-14T10:59:15.759Z,7.00
2019-02-14T11:15:12.110Z,7.40
2019-02-14T11:17:41.742Z,7.50
2019-02-14T11:24:48.041Z,7.80
2019-02-14T11:35:10.016Z,8.30
2019-02-14T11:37:44.836Z,8.50
2019-02-14T11:40:14.168Z,8.60
2019-02-14T11:42:48.890Z,8.70
2019-02-14T11:45:19.097Z,8.90
2019-02-14T11:47:48.419Z,9.00
2019-02-14T11:50:17.666Z,9.10
2019-02-14T11:52:47.505Z,9.20
2019-02-14T11:55:16.731Z,9.30
2019-02-14T11:58:16.255Z,9.30
2019-02-14T12:00:45.867Z,9.30
2019-02-14T12:03:15.116Z,9.30
2019-02-14T12:05:44.366Z,9.30
2019-02-14T12:08:13.614Z,9.30
2019-02-14T12:10:42.920Z,9.40
2019-02-14T12:13:12.138Z,9.40
2019-02-14T12:15:41.577Z,9.50
2019-02-14T12:18:10.809Z,9.50
2019-02-14T12:20:40.418Z,9.60
2019-02-14T12:23:13.833Z,9.70
2019-02-14T12:25:43.293Z,9.80
2019-02-14T12:28:13.363Z,9.90
2019-02-14T12:31:03.498Z,10.00
2019-02-14T12:37:16.012Z,10.10
2019-02-14T12:39:48.015Z,10.20
2019-02-14T12:42:17.429Z,10.20
2019-02-14T12:44:47.076Z,10.20
2019-02-14T12:47:16.687Z,10.30
2019-02-14T12:49:48.167Z,10.40
2019-02-14T12:52:17.609Z,10.50
2019-02-14T12:54:47.097Z,10.60
2019-02-14T12:57:16.486Z,10.70
2019-02-14T12:59:46.423Z,10.80
2019-02-14T13:02:16.075Z,10.90
2019-02-14T13:05:19.103Z,10.90
2019-02-14T13:07:48.313Z,11.00
2019-02-14T13:10:17.753Z,11.10
2019-02-14T13:12:47.647Z,11.20
2019-02-14T13:15:18.775Z,11.30
2019-02-14T13:21:29.592Z,11.50
2019-02-14T13:23:59.032Z,11.60
2019-02-14T13:26:28.370Z,11.70
2019-02-14T13:32:38.900Z,11.70
2019-02-14T13:35:08.325Z,11.70
2019-02-14T13:37:39.871Z,11.70
2019-02-14T13:43:49.738Z,11.80
2019-02-14T13:46:19.319Z,11.80
2019-02-14T13:48:48.662Z,11.80
2019-02-14T13:51:18.014Z,11.80
2019-02-14T13:53:49.521Z,11.80
2019-02-14T13:56:18.809Z,11.80
2019-02-14T13:58:48.200Z,11.90
2019-02-14T14:01:17.604Z,11.90
2019-02-14T14:03:46.971Z,11.90
2019-02-14T14:06:16.316Z,12.00
2019-02-14T14:08:46.330Z,12.00
2019-02-14T14:14:59.148Z,12.10
2019-02-14T14:17:32.878Z,12.10
2019-02-14T14:20:03.100Z,12.10
2019-02-14T14:22:34.458Z,12.10
2019-02-14T14:28:46.150Z,12.00
2019-02-14T14:31:47.604Z,11.90
2019-02-14T14:38:04.778Z,12.00
2019-02-14T14:40:34.025Z,12.10
2019-02-14T14:43:34.583Z,12.10
2019-02-14T14:46:18.243Z,12.10
2019-02-14T14:48:47.511Z,12.10
2019-02-14T14:51:17.535Z,12.10
2019-02-14T14:54:08.258Z,12.00
2019-02-14T14:56:37.486Z,12.00
2019-02-14T14:59:06.518Z,12.10
2019-02-14T15:01:36.089Z,12.10
2019-02-14T15:04:05.095Z,12.00
2019-02-14T15:06:34.476Z,12.00
2019-02-14T15:09:03.568Z,11.90
2019-02-14T15:14:07.577Z,11.70
2019-02-14T15:16:36.571Z,11.70
2019-02-14T15:19:06.260Z,11.60
2019-02-14T15:22:21.533Z,11.50
2019-02-14T15:24:51.610Z,11.50
2019-02-14T15:27:20.811Z,11.30
2019-02-14T15:30:39.448Z,11.30
2019-02-14T15:34:01.689Z,11.20
2019-02-14T15:36:34.091Z,11.10
2019-02-14T15:42:44.544Z,10.90
2019-02-14T15:48:55.246Z,10.70
2019-02-14T15:51:24.706Z,10.70
2019-02-14T15:53:53.858Z,10.60
2019-02-14T15:56:23.360Z,10.60
2019-02-14T15:58:54.689Z,10.50
2019-02-14T16:02:47.910Z,10.40
2019-02-14T16:05:40.749Z,10.40
2019-02-14T16:11:53.165Z,10.20
2019-02-14T16:14:23.805Z,10.10
2019-02-14T16:20:34.195Z,9.90
2019-02-14T16:23:04.135Z,9.80
2019-02-14T16:25:34.349Z,9.70
2019-02-14T16:28:03.629Z,9.60
2019-02-14T16:30:33.410Z,9.60
2019-02-14T16:33:03.421Z,9.50
2019-02-14T16:35:33.134Z,9.40
2019-02-14T16:38:02.666Z,9.30
2019-02-14T16:40:38.352Z,9.20
2019-02-14T16:43:25.549Z,9.10
2019-02-14T16:46:00.841Z,9.10
2019-02-14T16:52:27.950Z,8.90
2019-02-14T17:02:23.492Z,8.50
2019-02-14T17:08:34.474Z,8.30
2019-02-14T17:11:59.254Z,8.20
2019-02-14T17:17:02.921Z,8.00
2019-02-14T17:19:38.657Z,7.90
2019-02-14T17:22:12.773Z,7.80
2019-02-14T17:24:55.123Z,7.80
2019-02-14T17:32:56.254Z,7.60
2019-02-14T17:35:21.400Z,7.50
2019-02-14T17:37:53.470Z,7.40
2019-02-14T17:40:46.099Z,7.30
2019-02-14T17:48:57.061Z,7.00
2019-02-14T17:54:41.904Z,6.90
2019-02-14T17:57:11.416Z,6.80
2019-02-14T18:03:22.497Z,6.70
2019-02-14T18:08:31.038Z,6.50
2019-02-14T18:11:03.339Z,6.40
2019-02-14T18:13:36.837Z,6.40
2019-02-14T18:22:56.520Z,6.20
2019-02-14T18:26:05.926Z,6.10
2019-02-14T18:28:37.294Z,6.00
2019-02-14T18:31:06.718Z,5.90
2019-02-14T18:33:37.196Z,5.80
2019-02-14T18:40:13.000Z,5.70
2019-02-14T18:43:16.918Z,5.60
2019-02-14T18:45:47.003Z,5.50
2019-02-14T18:52:00.633Z,5.40
2019-02-14T18:54:29.832Z,5.30
2019-02-14T18:56:59.967Z,5.20
2019-02-14T18:59:29.214Z,5.10
2019-02-14T19:01:58.318Z,5.10
2019-02-14T19:04:27.833Z,5.00
2019-02-14T19:06:56.846Z,4.90
2019-02-14T19:09:25.991Z,4.90
2019-02-14T19:12:39.045Z,4.80
2019-02-14T19:15:09.001Z,4.80
2019-02-14T19:17:38.095Z,4.80
2019-02-14T19:20:07.816Z,4.70
2019-02-14T19:22:37.130Z,4.70
2019-02-14T19:25:06.925Z,4.70
2019-02-14T19:28:00.081Z,4.60
2019-02-14T19:30:54.059Z,4.60
2019-02-14T19:33:35.543Z,4.50
2019-02-14T19:36:05.241Z,4.50
2019-02-14T19:38:34.368Z,4.40
2019-02-14T19:41:04.036Z,4.40
2019-02-14T19:47:14.570Z,4.30
2019-02-14T19:49:44.108Z,4.20
2019-02-14T19:52:13.530Z,4.20
2019-02-14T19:54:42.856Z,4.10
2019-02-14T19:58:02.600Z,4.00
2019-02-14T20:00:31.808Z,3.90
2019-02-14T20:03:00.897Z,3.80
2019-02-14T20:05:29.914Z,3.80
2019-02-14T20:07:59.444Z,3.80
2019-02-14T20:10:28.985Z,3.80
2019-02-14T20:13:01.134Z,3.80
2019-02-14T20:15:36.878Z,3.80
2019-02-14T20:18:01.476Z,3.70
2019-02-14T20:20:30.535Z,3.70
2019-02-14T20:22:59.646Z,3.60
2019-02-14T20:25:28.776Z,3.60
2019-02-14T20:27:57.901Z,3.70
2019-02-14T20:30:27.242Z,3.70
2019-02-14T20:33:04.394Z,3.70
2019-02-14T20:35:27.741Z,3.70
2019-02-14T20:37:56.841Z,3.70
2019-02-14T20:40:25.974Z,3.70
2019-02-14T20:42:55.249Z,3.70
2019-02-14T20:49:05.576Z,3.60
2019-02-14T20:51:38.555Z,3.50
2019-02-14T20:54:05.782Z,3.40
2019-02-14T20:56:34.849Z,3.40
2019-02-14T20:59:04.041Z,3.50
2019-02-14T21:01:33.131Z,3.50
2019-02-14T21:04:02.276Z,3.60
2019-02-14T21:06:31.404Z,3.60
2019-02-14T21:09:01.363Z,3.60
2019-02-14T21:11:31.170Z,3.60
2019-02-14T21:14:00.697Z,3.60
2019-02-14T21:16:31.961Z,3.60
2019-02-14T21:19:02.396Z,3.60
2019-02-14T21:21:31.686Z,3.50
2019-02-14T21:24:00.784Z,3.50
2019-02-14T21:26:29.954Z,3.40
2019-02-14T21:29:00.072Z,3.40
2019-02-14T21:32:02.553Z,3.40
2019-02-14T21:34:31.759Z,3.40
2019-02-14T21:37:00.849Z,3.30
2019-02-14T21:39:41.352Z,3.30
2019-02-14T21:42:19.774Z,3.30
2019-02-14T21:44:41.566Z,3.30
2019-02-14T21:47:29.548Z,3.20
2019-02-14T21:49:58.689Z,3.20
2019-02-14T21:52:28.784Z,3.20
2019-02-14T21:54:58.277Z,3.20
2019-02-14T21:57:27.313Z,3.20
2019-02-14T21:59:56.356Z,3.10
2019-02-14T22:02:25.304Z,3.10
2019-02-14T22:04:54.569Z,3.10
2019-02-14T22:08:02.911Z,3.10
2019-02-14T22:10:32.052Z,3.10
2019-02-14T22:13:01.197Z,3.10
2019-02-14T22:15:30.386Z,3.10
2019-02-14T22:18:00.110Z,3.10
2019-02-14T22:20:53.386Z,3.10
2019-02-14T22:23:22.437Z,3.10
2019-02-14T22:25:51.424Z,3.00
2019-02-14T22:28:20.673Z,3.00
2019-02-14T22:30:49.934Z,3.00
2019-02-14T22:33:18.822Z,3.00
2019-02-14T22:35:48.245Z,3.00
2019-02-14T22:38:17.486Z,3.00
2019-02-14T22:40:46.785Z,3.00
2019-02-14T22:43:47.129Z,3.00
2019-02-14T22:46:16.278Z,3.00
2019-02-14T22:48:45.326Z,3.00
2019-02-14T22:51:14.826Z,3.00
2019-02-14T22:53:43.951Z,3.00
2019-02-14T22:56:13.251Z,3.00
2019-02-14T22:58:42.193Z,2.90
2019-02-14T23:01:11.914Z,3.00
2019-02-14T23:03:40.837Z,3.00
2019-02-14T23:06:09.913Z,3.00
2019-02-14T23:08:39.068Z,3.00
2019-02-14T23:11:08.149Z,3.00
2019-02-14T23:13:37.081Z,3.00
2019-02-14T23:16:06.373Z,3.00
2019-02-14T23:18:35.284Z,3.00
2019-02-14T23:21:04.425Z,3.00
2019-02-14T23:23:33.673Z,3.00
2019-02-14T23:26:03.736Z,3.00
2019-02-14T23:28:32.699Z,2.90
2019-02-14T23:31:01.728Z,2.90
2019-02-14T23:33:30.716Z,2.90
2019-02-14T23:35:59.701Z,2.90
2019-02-14T23:38:28.824Z,2.90
2019-02-14T23:40:57.784Z,2.90
2019-02-14T23:43:26.659Z,2.90
2019-02-14T23:45:55.652Z,3.00
2019-02-14T23:48:24.817Z,3.00
2019-02-14T23:50:53.851Z,3.00
2019-02-14T23:53:23.760Z,3.00
2019-02-14T23:55:52.772Z,3.00
2019-02-14T23:58:22.001Z,3.00
